Flight Track Log - Related Links

Times and Time Zones

All times are in EDT time to prevent confusion due to time zone crossing. See the FLG3746 flight status page for this flight to view local times or setup timezone preferences in your user account.

Time Position Orientation Groundspeed Altitude Reporting Facility
EDT Latitude Longitude Course Direction KTS MPH feet Rate Location/Type
Mon 02:05:44 PM 42.7503 -73.8203 284° West 155 178 1,200  Level Boston Center
Mon 02:06:47 PM 42.7608 -73.8792 284° West 184 212 3,300 2,148 Climbing Boston Center
Mon 02:07:05 PM 42.7717 -73.8958 312° West 182 209 4,100 2,658 Climbing Boston Center
Mon 02:08:06 PM 42.8136 -73.9744 306° West 235 270 6,800 2,628 Climbing Boston Center
Mon 02:09:06 PM 42.8556 -74.0569 305° West 263 303 9,400 2,537 Climbing Boston Center
Mon 02:10:09 PM 42.9008 -74.1442 305° West 277 319 12,000 2,081 Climbing Boston Center
Mon 02:11:10 PM 42.9494 -74.2403 305° West 308 354 13,700 1,574 Climbing Boston Center
Mon 02:12:11 PM 42.9744 -74.3753 284° West 351 404 15,200 1,686 Climbing Boston Center
Mon 02:13:11 PM 42.9892 -74.5103 279° West 356 410 17,100 1,839 Climbing Boston Center
Mon 02:14:15 PM 43.0039 -74.6450 279° West 357 411 19,000 1,790 Climbing Boston Center
Mon 02:15:15 PM 43.0167 -74.7703 278° West 352 405 20,800 1,736 Climbing Boston Center
Mon 02:16:16 PM 43.0297 -74.8994 278° West 347 399 22,500 1,488 Climbing Boston Center
Mon 02:17:16 PM 43.0433 -75.0264 278° West 341 392 23,800 1,161 Climbing Boston Center
Mon 02:18:20 PM 43.0572 -75.1536 279° West 340 391 24,900 919 Climbing Boston Center
Mon 02:19:20 PM 43.0708 -75.2811 278° West 339 390 25,700 800 Climbing Boston Center
Mon 02:20:20 PM 43.0842 -75.4081 278° West 339 390 26,500 645 Climbing Boston Center
Mon 02:21:21 PM 43.0972 -75.5364 278° West 339 390 27,000 581 Climbing Boston Center
Mon 02:22:24 PM 43.1097 -75.6647 278° West 339 390 27,700 484 Climbing Boston Center
Mon 02:23:25 PM 43.1228 -75.7939 278° West 339 390 28,000 149 Climbing Boston Center
Mon 02:24:25 PM 43.1378 -75.9531 277° West 347 399 28,000  Level Boston Center
Mon 02:25:26 PM 43.1506 -76.0869 277° West 353 406 28,000  Level Boston Center
Mon 02:26:27 PM 43.1600 -76.2225 276° West 357 411 28,000  Level Boston Center
Mon 02:27:31 PM 43.1475 -76.3633 263° West 371 427 28,000  Level Boston Center
Mon 02:28:32 PM 43.1356 -76.5039 263° West 372 428 28,000  Level Boston Center
Mon 02:29:33 PM 43.1239 -76.6458 264° West 372 428 28,000  Level Boston Center
Mon 02:30:34 PM 43.1122 -76.7803 263° West 373 429 28,000  Level Boston Center
Mon 02:31:34 PM 43.0997 -76.9228 263° West 376 433 28,000  Level Boston Center
Mon 02:32:34 PM 43.0833 -77.0944 263° West 381 438 28,000  Level Boston Center
Mon 02:33:38 PM 43.0700 -77.2389 263° West 382 440 28,000  Level Boston Center
Mon 02:34:39 PM 43.0564 -77.3822 263° West 382 440 28,000  Level Boston Center
Mon 02:35:39 PM 43.0428 -77.5272 263° West 384 442 28,000  Level Boston Center
Mon 02:36:44 PM 43.0253 -77.7000 262° West 385 443 28,000  Level Cleveland Center
Mon 02:37:46 PM 43.0117 -77.8442 263° West 386 444 28,000  Level Cleveland Center
Mon 02:38:48 PM 42.9978 -77.9892 263° West 387 445 28,000  Level Cleveland Center
Mon 02:39:50 PM 42.9825 -78.1347 262° West 389 448 28,000  Level Cleveland Center
Mon 02:40:52 PM 42.9675 -78.2822 262° West 396 456 28,000  Level Cleveland Center
Mon 02:41:54 PM 42.9497 -78.4581 262° West 394 453 28,000  Level Cleveland Center
Mon 02:42:56 PM 42.9344 -78.6042 262° West 392 451 28,000  Level Cleveland Center
Mon 02:43:59 PM 42.9144 -78.7492 259° West 392 451 28,000  Level Cleveland Center
Mon 02:45:01 PM 42.8939 -78.8964 259° West 395 455 28,000  Level Cleveland Center
Mon 02:46:03 PM 42.8717 -79.0425 258° West 395 455 28,000  Level Cleveland Center
Mon 02:47:05 PM 42.8508 -79.1894 259° West 396 456 28,000  Level Cleveland Center
Mon 02:48:07 PM 42.8239 -79.3664 258° West 398 458 28,000  Level Cleveland Center
Mon 02:49:09 PM 42.8025 -79.5164 259° West 403 464 28,000  Level Cleveland Center
Mon 02:50:11 PM 42.7794 -79.6636 258° West 401 461 28,000  Level Cleveland Center
Mon 02:51:13 PM 42.7569 -79.8106 258° West 400 460 28,000  Level Cleveland Center
Mon 02:52:15 PM 42.7458 -79.9778 265° West 399 459 28,000  Level Cleveland Center
Mon 02:53:17 PM 42.7394 -80.1225 267° West 394 453 28,000  Level Cleveland Center
Mon 02:54:20 PM 42.7339 -80.2731 267° West 394 453 28,000  Level Cleveland Center
Mon 02:55:22 PM 42.7281 -80.4222 267° West 394 453 28,000  Level Cleveland Center
Mon 02:56:24 PM 42.7203 -80.5964 267° West 392 451 28,000  Level Cleveland Center
Mon 02:57:26 PM 42.7136 -80.7450 267° West 392 451 28,000  Level Cleveland Center
Mon 02:58:28 PM 42.7064 -80.8950 266° West 395 455 28,000  Level Cleveland Center
Mon 02:59:30 PM 42.6897 -81.0439 261° West 395 455 28,000  Level Cleveland Center
Mon 03:00:32 PM 42.6725 -81.1908 261° West 395 455 28,000  Level Cleveland Center
Mon 03:01:34 PM 42.6556 -81.3375 261° West 394 453 28,000 -290 Level Cleveland Center
Mon 03:02:36 PM 42.6389 -81.4844 261° West 394 453 27,400 -1,296 Descending Cleveland Center
Mon 03:03:39 PM 42.6194 -81.6528 261° West 387 445 25,300 -2,160 Descending Cleveland Center
Mon 03:04:41 PM 42.6031 -81.7911 261° West 373 429 22,900 -2,226 Descending Cleveland Center
Mon 03:05:43 PM 42.5878 -81.9103 260° West 358 412 20,700 -2,419 Descending Cleveland Center
Mon 03:06:45 PM 42.5683 -82.0703 261° West 358 412 17,900 -2,462 Descending Cleveland Center
Mon 03:07:01 PM 42.5658 -82.0981 263° West 354 407 17,500 -2,323 Descending Cleveland Center
Mon 03:07:47 PM 42.5533 -82.2017 261° West 357 411 15,500 -2,509 Descending Cleveland Center
Mon 03:08:51 PM 42.5344 -82.3461 260° West 346 398 12,900 -1,694 Descending Cleveland Center
Mon 03:09:51 PM 42.5222 -82.4447 260° West 322 371 12,000 -443 Descending Cleveland Center
Mon 03:10:53 PM 42.5050 -82.5575 258° West 258 297 12,000 -432 Level Cleveland Center
Mon 03:11:56 PM 42.4767 -82.6375 244° Southwest 273 314 11,100 -1,339 Descending Cleveland Center
Mon 03:12:54 PM 42.4372 -82.7439 243° Southwest 261 300 9,300 -1,059 Descending Cleveland Center
Mon 03:13:55 PM 42.4056 -82.8328 244° Southwest 261 300 9,000 -590 Descending Cleveland Center
Mon 03:14:56 PM 42.3864 -82.9236 254° West 242 278 8,100 -1,033 Descending Cleveland Center
Mon 03:15:57 PM 42.3775 -83.0156 263° West 247 284 6,900 -1,033 Descending Cleveland Center
Mon 03:16:58 PM 42.3939 -83.1025 284° West 249 287 6,000 -1,033 Descending Cleveland Center
Mon 03:17:59 PM 42.3992 -83.1994 274° West 247 284 4,800 -1,082 Descending Cleveland Center
Mon 03:19:00 PM 42.3436 -83.2425 210° Southwest 213 245 3,800 -930 Descending Cleveland Center
Mon 03:19:10 PM 42.3386 -83.2453 202° Southwest 233 268 3,700 -1,279 Descending Cleveland Center
Mon 03:20:01 PM 42.2967 -83.2783 210° Southwest 177 204 2,500 -1,238 Descending Cleveland Center
Mon 03:20:13 PM 42.2919 -83.2814 206° Southwest 204 235 2,400 -900 Descending Cleveland Center
Mon 03:21:01 PM 42.2569 -83.3067 208° Southwest 146 168 1,600 -871 Descending Cleveland Center
Mon 03:21:15 PM 42.2542 -83.3086 207° Southwest 165 190 1,500 -787 Descending Cleveland Center
Mon 03:22:02 PM 42.2214 -83.3325 208° Southwest 142 163 800 -290 Descending Cleveland Center
Mon 03:22:17 PM 42.2208 -83.3322 160° South 158 182 1,200 1,600 Climbing Cleveland Center
Mon 03:24:00 PM 42.2000 -83.3500 246° West  Level FlightAware Approximate
Mon 03:31:00 PM 42.2124 -83.3534 246° West  Level Estimated

Login

Don't have an account? Register now (free) for customized features, flight alerts, and more!